sensor_id;sensor_type;location;lat;lon;timestamp;temperature;humidity
48454;DHT22;34261;55.678;12.464;2023-03-01T00:00:34;2.80;99.90
48454;DHT22;34261;55.678;12.464;2023-03-01T00:02:59;2.80;99.90
48454;DHT22;34261;55.678;12.464;2023-03-01T00:05:25;2.90;99.90
48454;DHT22;34261;55.678;12.464;2023-03-01T00:07:52;2.90;99.90
48454;DHT22;34261;55.678;12.464;2023-03-01T00:10:18;2.90;99.90
48454;DHT22;34261;55.678;12.464;2023-03-01T00:12:43;2.90;99.90
48454;DHT22;34261;55.678;12.464;2023-03-01T00:15:09;2.80;99.90
48454;DHT22;34261;55.678;12.464;2023-03-01T00:17:34;2.70;99.90
48454;DHT22;34261;55.678;12.464;2023-03-01T00:19:59;2.70;99.90
48454;DHT22;34261;55.678;12.464;2023-03-01T00:22:26;2.60;99.90
48454;DHT22;34261;55.678;12.464;2023-03-01T00:24:53;2.60;99.90
48454;DHT22;34261;55.678;12.464;2023-03-01T00:27:18;2.60;99.90
48454;DHT22;34261;55.678;12.464;2023-03-01T00:29:44;2.60;99.90
48454;DHT22;34261;55.678;12.464;2023-03-01T00:32:09;2.50;99.90
48454;DHT22;34261;55.678;12.464;2023-03-01T00:34:35;2.50;99.90
48454;DHT22;34261;55.678;12.464;2023-03-01T00:37:00;2.50;99.90
48454;DHT22;34261;55.678;12.464;2023-03-01T00:39:30;2.50;99.90
48454;DHT22;34261;55.678;12.464;2023-03-01T00:41:56;2.40;99.90
48454;DHT22;34261;55.678;12.464;2023-03-01T00:44:22;2.40;99.90
48454;DHT22;34261;55.678;12.464;2023-03-01T00:46:47;2.30;99.90
48454;DHT22;34261;55.678;12.464;2023-03-01T00:49:13;2.30;99.90
48454;DHT22;34261;55.678;12.464;2023-03-01T00:51:39;2.30;99.90
48454;DHT22;34261;55.678;12.464;2023-03-01T00:54:09;2.30;99.90
48454;DHT22;34261;55.678;12.464;2023-03-01T00:56:34;2.30;99.90
48454;DHT22;34261;55.678;12.464;2023-03-01T00:59:00;2.20;99.90
48454;DHT22;34261;55.678;12.464;2023-03-01T01:01:27;2.30;99.90
48454;DHT22;34261;55.678;12.464;2023-03-01T01:04:00;2.30;99.90
48454;DHT22;34261;55.678;12.464;2023-03-01T01:06:27;2.30;99.90
48454;DHT22;34261;55.678;12.464;2023-03-01T01:08:53;2.30;99.90
48454;DHT22;34261;55.678;12.464;2023-03-01T01:11:19;2.40;99.90
48454;DHT22;34261;55.678;12.464;2023-03-01T01:13:45;2.40;99.90
48454;DHT22;34261;55.678;12.464;2023-03-01T01:16:11;2.40;99.90
48454;DHT22;34261;55.678;12.464;2023-03-01T01:18:37;2.40;99.90
48454;DHT22;34261;55.678;12.464;2023-03-01T01:21:03;2.40;99.90
48454;DHT22;34261;55.678;12.464;2023-03-01T01:23:29;2.40;99.90
48454;DHT22;34261;55.678;12.464;2023-03-01T01:25:54;2.50;99.90
48454;DHT22;34261;55.678;12.464;2023-03-01T01:28:20;2.60;99.90
48454;DHT22;34261;55.678;12.464;2023-03-01T01:30:45;2.70;99.90
48454;DHT22;34261;55.678;12.464;2023-03-01T01:33:10;2.70;99.90
48454;DHT22;34261;55.678;12.464;2023-03-01T01:35:36;2.70;99.90
48454;DHT22;34261;55.678;12.464;2023-03-01T01:38:01;2.80;99.90
48454;DHT22;34261;55.678;12.464;2023-03-01T01:40:27;2.80;99.90
48454;DHT22;34261;55.678;12.464;2023-03-01T01:42:52;2.80;99.90
48454;DHT22;34261;55.678;12.464;2023-03-01T01:45:34;2.90;99.90
48454;DHT22;34261;55.678;12.464;2023-03-01T01:48:02;2.90;99.90
48454;DHT22;34261;55.678;12.464;2023-03-01T01:50:29;2.90;99.90
48454;DHT22;34261;55.678;12.464;2023-03-01T01:53:04;2.90;99.90
48454;DHT22;34261;55.678;12.464;2023-03-01T01:55:30;2.90;99.90
48454;DHT22;34261;55.678;12.464;2023-03-01T01:57:57;2.90;99.90
48454;DHT22;34261;55.678;12.464;2023-03-01T02:00:24;2.90;99.90
48454;DHT22;34261;55.678;12.464;2023-03-01T02:02:51;3.00;99.90
48454;DHT22;34261;55.678;12.464;2023-03-01T02:07:51;3.00;99.90
48454;DHT22;34261;55.678;12.464;2023-03-01T02:10:16;3.00;99.90
48454;DHT22;34261;55.678;12.464;2023-03-01T02:12:42;3.00;99.90
48454;DHT22;34261;55.678;12.464;2023-03-01T02:15:08;3.00;99.90
48454;DHT22;34261;55.678;12.464;2023-03-01T02:17:33;3.00;99.90
48454;DHT22;34261;55.678;12.464;2023-03-01T02:20:13;3.00;99.90
48454;DHT22;34261;55.678;12.464;2023-03-01T02:22:43;3.00;99.90
48454;DHT22;34261;55.678;12.464;2023-03-01T02:27:53;3.00;99.90
48454;DHT22;34261;55.678;12.464;2023-03-01T02:30:21;3.00;99.90
48454;DHT22;34261;55.678;12.464;2023-03-01T02:32:47;3.00;99.90
48454;DHT22;34261;55.678;12.464;2023-03-01T02:35:14;3.00;99.90
48454;DHT22;34261;55.678;12.464;2023-03-01T02:37:41;3.00;99.90
48454;DHT22;34261;55.678;12.464;2023-03-01T02:40:08;3.00;99.90
48454;DHT22;34261;55.678;12.464;2023-03-01T02:42:50;3.00;99.90
48454;DHT22;34261;55.678;12.464;2023-03-01T02:45:17;3.10;99.90
48454;DHT22;34261;55.678;12.464;2023-03-01T02:47:42;3.10;99.90
48454;DHT22;34261;55.678;12.464;2023-03-01T02:53:02;3.00;99.90
48454;DHT22;34261;55.678;12.464;2023-03-01T02:55:29;2.90;99.90
48454;DHT22;34261;55.678;12.464;2023-03-01T02:57:54;2.90;99.90
48454;DHT22;34261;55.678;12.464;2023-03-01T03:00:22;2.90;99.90
48454;DHT22;34261;55.678;12.464;2023-03-01T03:02:49;2.90;99.90
48454;DHT22;34261;55.678;12.464;2023-03-01T03:05:16;2.90;99.90
48454;DHT22;34261;55.678;12.464;2023-03-01T03:07:42;2.90;99.90
48454;DHT22;34261;55.678;12.464;2023-03-01T03:10:11;2.90;99.90
48454;DHT22;34261;55.678;12.464;2023-03-01T03:12:37;2.80;99.90
48454;DHT22;34261;55.678;12.464;2023-03-01T03:15:03;2.80;99.90
48454;DHT22;34261;55.678;12.464;2023-03-01T03:17:35;2.70;99.90
48454;DHT22;34261;55.678;12.464;2023-03-01T03:20:01;2.70;99.90
48454;DHT22;34261;55.678;12.464;2023-03-01T03:22:31;2.70;99.90
48454;DHT22;34261;55.678;12.464;2023-03-01T03:24:59;2.70;99.90
48454;DHT22;34261;55.678;12.464;2023-03-01T03:27:24;2.70;99.90
48454;DHT22;34261;55.678;12.464;2023-03-01T03:29:50;2.70;99.90
48454;DHT22;34261;55.678;12.464;2023-03-01T03:32:15;2.60;99.90
48454;DHT22;34261;55.678;12.464;2023-03-01T03:34:41;2.60;99.90
48454;DHT22;34261;55.678;12.464;2023-03-01T03:37:06;2.60;99.90
48454;DHT22;34261;55.678;12.464;2023-03-01T03:39:51;2.50;99.90
48454;DHT22;34261;55.678;12.464;2023-03-01T03:42:20;2.50;99.90
48454;DHT22;34261;55.678;12.464;2023-03-01T03:44:46;2.50;99.90
48454;DHT22;34261;55.678;12.464;2023-03-01T03:47:11;2.50;99.90
48454;DHT22;34261;55.678;12.464;2023-03-01T03:49:36;2.50;99.90
48454;DHT22;34261;55.678;12.464;2023-03-01T03:52:02;2.40;99.90
48454;DHT22;34261;55.678;12.464;2023-03-01T03:54:27;2.40;99.90
48454;DHT22;34261;55.678;12.464;2023-03-01T03:56:53;2.50;99.90
48454;DHT22;34261;55.678;12.464;2023-03-01T03:59:18;2.50;99.90
48454;DHT22;34261;55.678;12.464;2023-03-01T04:01:43;2.40;99.90
48454;DHT22;34261;55.678;12.464;2023-03-01T04:04:10;2.40;99.90
48454;DHT22;34261;55.678;12.464;2023-03-01T04:06:35;2.40;99.90
48454;DHT22;34261;55.678;12.464;2023-03-01T04:09:01;2.40;99.90
48454;DHT22;34261;55.678;12.464;2023-03-01T04:11:27;2.40;99.90
48454;DHT22;34261;55.678;12.464;2023-03-01T04:13:54;2.30;99.90
48454;DHT22;34261;55.678;12.464;2023-03-01T04:16:20;2.30;99.90
48454;DHT22;34261;55.678;12.464;2023-03-01T04:18:47;2.20;99.90
48454;DHT22;34261;55.678;12.464;2023-03-01T04:21:12;2.20;99.90
48454;DHT22;34261;55.678;12.464;2023-03-01T04:23:38;2.20;99.90
48454;DHT22;34261;55.678;12.464;2023-03-01T04:26:04;2.10;99.90
48454;DHT22;34261;55.678;12.464;2023-03-01T04:28:36;2.10;99.90
48454;DHT22;34261;55.678;12.464;2023-03-01T04:31:03;2.10;99.90
48454;DHT22;34261;55.678;12.464;2023-03-01T04:33:38;2.00;99.90
48454;DHT22;34261;55.678;12.464;2023-03-01T04:36:04;2.00;99.90
48454;DHT22;34261;55.678;12.464;2023-03-01T04:38:30;1.90;99.90
48454;DHT22;34261;55.678;12.464;2023-03-01T04:40:55;1.90;99.90
48454;DHT22;34261;55.678;12.464;2023-03-01T04:43:21;1.90;99.90
48454;DHT22;34261;55.678;12.464;2023-03-01T04:45:46;1.90;99.90
48454;DHT22;34261;55.678;12.464;2023-03-01T04:48:12;1.90;99.90
48454;DHT22;34261;55.678;12.464;2023-03-01T04:50:37;1.80;99.90
48454;DHT22;34261;55.678;12.464;2023-03-01T04:53:03;1.80;99.90
48454;DHT22;34261;55.678;12.464;2023-03-01T04:55:28;1.80;99.90
48454;DHT22;34261;55.678;12.464;2023-03-01T04:57:54;1.70;99.90
48454;DHT22;34261;55.678;12.464;2023-03-01T05:00:20;1.80;99.90
48454;DHT22;34261;55.678;12.464;2023-03-01T05:02:56;1.70;99.90
48454;DHT22;34261;55.678;12.464;2023-03-01T05:05:23;1.70;99.90
48454;DHT22;34261;55.678;12.464;2023-03-01T05:07:51;1.70;99.90
48454;DHT22;34261;55.678;12.464;2023-03-01T05:10:16;1.70;99.90
48454;DHT22;34261;55.678;12.464;2023-03-01T05:12:42;1.60;99.90
48454;DHT22;34261;55.678;12.464;2023-03-01T05:15:07;1.70;99.90
48454;DHT22;34261;55.678;12.464;2023-03-01T05:17:33;1.60;99.90
48454;DHT22;34261;55.678;12.464;2023-03-01T05:19:59;1.60;99.90
48454;DHT22;34261;55.678;12.464;2023-03-01T05:22:25;1.60;99.90
48454;DHT22;34261;55.678;12.464;2023-03-01T05:24:50;1.50;99.90
48454;DHT22;34261;55.678;12.464;2023-03-01T05:27:15;1.50;99.90
48454;DHT22;34261;55.678;12.464;2023-03-01T05:29:41;1.60;99.90
48454;DHT22;34261;55.678;12.464;2023-03-01T05:32:06;1.60;99.90
48454;DHT22;34261;55.678;12.464;2023-03-01T05:34:34;1.50;99.90
48454;DHT22;34261;55.678;12.464;2023-03-01T05:37:00;1.60;99.90
48454;DHT22;34261;55.678;12.464;2023-03-01T05:39:26;1.60;99.90
48454;DHT22;34261;55.678;12.464;2023-03-01T05:41:56;1.50;99.90
48454;DHT22;34261;55.678;12.464;2023-03-01T05:44:22;1.50;99.90
48454;DHT22;34261;55.678;12.464;2023-03-01T05:46:47;1.60;99.90
48454;DHT22;34261;55.678;12.464;2023-03-01T05:49:13;1.60;99.90
48454;DHT22;34261;55.678;12.464;2023-03-01T05:51:39;1.50;99.90
48454;DHT22;34261;55.678;12.464;2023-03-01T05:54:05;1.60;99.90
48454;DHT22;34261;55.678;12.464;2023-03-01T05:56:34;1.60;99.90
48454;DHT22;34261;55.678;12.464;2023-03-01T05:59:00;1.60;99.90
48454;DHT22;34261;55.678;12.464;2023-03-01T06:01:25;1.60;99.90
48454;DHT22;34261;55.678;12.464;2023-03-01T06:03:51;1.60;99.90
48454;DHT22;34261;55.678;12.464;2023-03-01T06:06:16;1.60;99.90
48454;DHT22;34261;55.678;12.464;2023-03-01T06:08:42;1.60;99.90
48454;DHT22;34261;55.678;12.464;2023-03-01T06:11:07;1.50;99.90
48454;DHT22;34261;55.678;12.464;2023-03-01T06:13:33;1.50;99.90
48454;DHT22;34261;55.678;12.464;2023-03-01T06:15:58;1.50;99.90
48454;DHT22;34261;55.678;12.464;2023-03-01T06:18:24;1.50;99.90
48454;DHT22;34261;55.678;12.464;2023-03-01T06:20:55;1.50;99.90
48454;DHT22;34261;55.678;12.464;2023-03-01T06:23:21;1.40;99.90
48454;DHT22;34261;55.678;12.464;2023-03-01T06:25:47;1.40;99.90
48454;DHT22;34261;55.678;12.464;2023-03-01T06:28:12;1.40;99.90
48454;DHT22;34261;55.678;12.464;2023-03-01T06:30:37;1.50;99.90
48454;DHT22;34261;55.678;12.464;2023-03-01T06:33:03;1.50;99.90
48454;DHT22;34261;55.678;12.464;2023-03-01T06:35:29;1.50;99.90
48454;DHT22;34261;55.678;12.464;2023-03-01T06:37:56;1.50;99.90
48454;DHT22;34261;55.678;12.464;2023-03-01T06:40:22;1.50;99.90
48454;DHT22;34261;55.678;12.464;2023-03-01T06:42:48;1.60;99.90
48454;DHT22;34261;55.678;12.464;2023-03-01T06:45:14;1.60;99.90
48454;DHT22;34261;55.678;12.464;2023-03-01T06:47:39;1.60;99.90
48454;DHT22;34261;55.678;12.464;2023-03-01T06:50:05;1.60;99.90
48454;DHT22;34261;55.678;12.464;2023-03-01T06:52:31;1.60;99.90
48454;DHT22;34261;55.678;12.464;2023-03-01T06:54:56;1.70;99.90
48454;DHT22;34261;55.678;12.464;2023-03-01T06:57:22;1.70;99.90
48454;DHT22;34261;55.678;12.464;2023-03-01T06:59:47;1.80;99.90
48454;DHT22;34261;55.678;12.464;2023-03-01T07:02:13;1.80;99.90
48454;DHT22;34261;55.678;12.464;2023-03-01T07:04:39;1.80;99.90
48454;DHT22;34261;55.678;12.464;2023-03-01T07:07:04;1.80;99.90
48454;DHT22;34261;55.678;12.464;2023-03-01T07:09:30;1.80;99.90
48454;DHT22;34261;55.678;12.464;2023-03-01T07:11:55;1.80;99.90
48454;DHT22;34261;55.678;12.464;2023-03-01T07:14:21;1.90;99.90
48454;DHT22;34261;55.678;12.464;2023-03-01T07:16:46;1.90;99.90
48454;DHT22;34261;55.678;12.464;2023-03-01T07:19:12;1.90;99.90
48454;DHT22;34261;55.678;12.464;2023-03-01T07:21:37;2.00;99.90
48454;DHT22;34261;55.678;12.464;2023-03-01T07:24:05;2.00;99.90
48454;DHT22;34261;55.678;12.464;2023-03-01T07:26:31;2.10;99.90
48454;DHT22;34261;55.678;12.464;2023-03-01T07:28:58;2.20;99.90
48454;DHT22;34261;55.678;12.464;2023-03-01T07:31:23;2.30;99.90
48454;DHT22;34261;55.678;12.464;2023-03-01T07:33:49;2.30;99.90
48454;DHT22;34261;55.678;12.464;2023-03-01T07:36:14;2.40;99.90
48454;DHT22;34261;55.678;12.464;2023-03-01T07:38:40;2.50;99.90
48454;DHT22;34261;55.678;12.464;2023-03-01T07:41:05;2.50;99.90
48454;DHT22;34261;55.678;12.464;2023-03-01T07:43:31;2.50;99.90
48454;DHT22;34261;55.678;12.464;2023-03-01T07:46:00;2.60;99.90
48454;DHT22;34261;55.678;12.464;2023-03-01T07:48:26;2.50;99.90
48454;DHT22;34261;55.678;12.464;2023-03-01T07:50:52;2.50;99.90
48454;DHT22;34261;55.678;12.464;2023-03-01T07:53:17;2.60;99.90
48454;DHT22;34261;55.678;12.464;2023-03-01T07:55:42;2.60;99.90
48454;DHT22;34261;55.678;12.464;2023-03-01T07:58:08;2.70;99.90
48454;DHT22;34261;55.678;12.464;2023-03-01T08:00:33;2.80;99.90
48454;DHT22;34261;55.678;12.464;2023-03-01T08:02:59;2.80;99.90
48454;DHT22;34261;55.678;12.464;2023-03-01T08:05:26;2.90;99.90
48454;DHT22;34261;55.678;12.464;2023-03-01T08:07:51;2.90;99.90
48454;DHT22;34261;55.678;12.464;2023-03-01T08:10:17;3.00;99.90
48454;DHT22;34261;55.678;12.464;2023-03-01T08:12:45;3.00;99.90
48454;DHT22;34261;55.678;12.464;2023-03-01T08:15:11;3.10;99.90
48454;DHT22;34261;55.678;12.464;2023-03-01T08:17:37;3.10;99.90
48454;DHT22;34261;55.678;12.464;2023-03-01T08:20:02;3.20;99.90
48454;DHT22;34261;55.678;12.464;2023-03-01T08:22:29;3.30;99.90
48454;DHT22;34261;55.678;12.464;2023-03-01T08:24:54;3.40;99.90
48454;DHT22;34261;55.678;12.464;2023-03-01T08:27:21;3.50;99.90
48454;DHT22;34261;55.678;12.464;2023-03-01T08:29:46;3.60;99.90
48454;DHT22;34261;55.678;12.464;2023-03-01T08:32:12;3.70;99.90
48454;DHT22;34261;55.678;12.464;2023-03-01T08:34:37;3.80;99.90
48454;DHT22;34261;55.678;12.464;2023-03-01T08:37:03;3.90;99.90
48454;DHT22;34261;55.678;12.464;2023-03-01T08:39:28;4.00;99.90
48454;DHT22;34261;55.678;12.464;2023-03-01T08:41:54;4.10;99.90
48454;DHT22;34261;55.678;12.464;2023-03-01T08:44:19;4.20;99.90
48454;DHT22;34261;55.678;12.464;2023-03-01T08:46:46;4.40;99.90
48454;DHT22;34261;55.678;12.464;2023-03-01T08:49:13;4.50;99.90
48454;DHT22;34261;55.678;12.464;2023-03-01T08:51:39;4.60;99.90
48454;DHT22;34261;55.678;12.464;2023-03-01T08:54:10;4.70;99.90
48454;DHT22;34261;55.678;12.464;2023-03-01T08:56:36;4.80;99.90
48454;DHT22;34261;55.678;12.464;2023-03-01T08:59:01;4.90;99.90
48454;DHT22;34261;55.678;12.464;2023-03-01T09:01:27;5.00;99.90
48454;DHT22;34261;55.678;12.464;2023-03-01T09:03:53;5.20;99.90
48454;DHT22;34261;55.678;12.464;2023-03-01T09:06:18;5.30;99.90
48454;DHT22;34261;55.678;12.464;2023-03-01T09:08:45;5.40;99.90
48454;DHT22;34261;55.678;12.464;2023-03-01T09:11:12;5.60;99.90
48454;DHT22;34261;55.678;12.464;2023-03-01T09:13:37;5.70;99.90
48454;DHT22;34261;55.678;12.464;2023-03-01T09:16:05;5.70;99.90
48454;DHT22;34261;55.678;12.464;2023-03-01T09:18:31;5.80;99.90
48454;DHT22;34261;55.678;12.464;2023-03-01T09:21:01;5.90;99.90
48454;DHT22;34261;55.678;12.464;2023-03-01T09:23:26;5.90;99.90
48454;DHT22;34261;55.678;12.464;2023-03-01T09:25:52;6.00;99.90
48454;DHT22;34261;55.678;12.464;2023-03-01T09:28:17;6.10;99.90
48454;DHT22;34261;55.678;12.464;2023-03-01T09:30:43;6.20;99.90
48454;DHT22;34261;55.678;12.464;2023-03-01T09:33:08;6.20;99.90
48454;DHT22;34261;55.678;12.464;2023-03-01T09:35:40;6.30;99.90
48454;DHT22;34261;55.678;12.464;2023-03-01T09:38:11;6.40;99.90
48454;DHT22;34261;55.678;12.464;2023-03-01T09:40:37;6.50;99.90
48454;DHT22;34261;55.678;12.464;2023-03-01T09:43:11;6.60;99.90
48454;DHT22;34261;55.678;12.464;2023-03-01T09:45:39;6.80;99.90
48454;DHT22;34261;55.678;12.464;2023-03-01T09:48:07;6.90;99.90
48454;DHT22;34261;55.678;12.464;2023-03-01T09:50:39;7.10;99.90
48454;DHT22;34261;55.678;12.464;2023-03-01T09:53:09;7.20;99.90
48454;DHT22;34261;55.678;12.464;2023-03-01T09:55:39;7.30;99.90
48454;DHT22;34261;55.678;12.464;2023-03-01T10:00:49;7.60;99.90
48454;DHT22;34261;55.678;12.464;2023-03-01T10:03:16;7.80;99.90
48454;DHT22;34261;55.678;12.464;2023-03-01T10:06:04;8.00;99.90
48454;DHT22;34261;55.678;12.464;2023-03-01T10:08:36;8.30;99.90
48454;DHT22;34261;55.678;12.464;2023-03-01T10:11:04;8.40;99.90
48454;DHT22;34261;55.678;12.464;2023-03-01T10:16:20;8.60;99.90
48454;DHT22;34261;55.678;12.464;2023-03-01T10:18:47;8.70;99.90
48454;DHT22;34261;55.678;12.464;2023-03-01T10:21:18;8.80;99.90
48454;DHT22;34261;55.678;12.464;2023-03-01T10:23:44;8.90;99.90
48454;DHT22;34261;55.678;12.464;2023-03-01T10:29:02;9.10;99.90
48454;DHT22;34261;55.678;12.464;2023-03-01T10:34:07;9.30;99.90
48454;DHT22;34261;55.678;12.464;2023-03-01T10:36:33;9.40;99.90
48454;DHT22;34261;55.678;12.464;2023-03-01T10:38:59;9.50;99.90
48454;DHT22;34261;55.678;12.464;2023-03-01T10:41:25;9.70;99.90
48454;DHT22;34261;55.678;12.464;2023-03-01T10:43:55;9.90;99.90
48454;DHT22;34261;55.678;12.464;2023-03-01T10:46:32;10.00;99.90
48454;DHT22;34261;55.678;12.464;2023-03-01T10:51:32;10.20;99.90
48454;DHT22;34261;55.678;12.464;2023-03-01T10:53:57;10.30;99.90
48454;DHT22;34261;55.678;12.464;2023-03-01T10:56:23;10.30;99.90
48454;DHT22;34261;55.678;12.464;2023-03-01T10:59:03;10.40;99.90
48454;DHT22;34261;55.678;12.464;2023-03-01T11:01:33;10.40;99.90
48454;DHT22;34261;55.678;12.464;2023-03-01T11:06:32;10.70;99.30
48454;DHT22;34261;55.678;12.464;2023-03-01T11:08:57;10.60;99.90
48454;DHT22;34261;55.678;12.464;2023-03-01T11:11:37;10.80;99.90
48454;DHT22;34261;55.678;12.464;2023-03-01T11:14:22;10.80;99.90
48454;DHT22;34261;55.678;12.464;2023-03-01T11:16:48;10.80;99.50
48454;DHT22;34261;55.678;12.464;2023-03-01T11:19:35;10.90;99.40
48454;DHT22;34261;55.678;12.464;2023-03-01T11:22:13;11.00;99.70
48454;DHT22;34261;55.678;12.464;2023-03-01T11:24:52;11.00;98.80
48454;DHT22;34261;55.678;12.464;2023-03-01T11:27:21;11.20;98.70
48454;DHT22;34261;55.678;12.464;2023-03-01T11:30:07;11.20;98.40
48454;DHT22;34261;55.678;12.464;2023-03-01T11:32:39;11.50;97.90
48454;DHT22;34261;55.678;12.464;2023-03-01T11:35:14;11.40;96.60
48454;DHT22;34261;55.678;12.464;2023-03-01T11:37:53;11.50;96.20
48454;DHT22;34261;55.678;12.464;2023-03-01T11:45:53;11.60;94.30
48454;DHT22;34261;55.678;12.464;2023-03-01T11:48:27;11.80;94.10
48454;DHT22;34261;55.678;12.464;2023-03-01T11:50:54;12.00;93.70
48454;DHT22;34261;55.678;12.464;2023-03-01T12:03:47;12.20;92.80
48454;DHT22;34261;55.678;12.464;2023-03-01T12:06:24;12.10;93.00
48454;DHT22;34261;55.678;12.464;2023-03-01T12:09:04;12.40;93.20
48454;DHT22;34261;55.678;12.464;2023-03-01T12:14:26;12.70;92.10
48454;DHT22;34261;55.678;12.464;2023-03-01T12:19:56;12.60;92.20
48454;DHT22;34261;55.678;12.464;2023-03-01T12:22:29;12.80;91.80
48454;DHT22;34261;55.678;12.464;2023-03-01T12:38:16;13.40;91.30
48454;DHT22;34261;55.678;12.464;2023-03-01T12:48:35;13.90;90.90
48454;DHT22;34261;55.678;12.464;2023-03-01T12:51:03;13.90;90.30
48454;DHT22;34261;55.678;12.464;2023-03-01T12:53:36;14.00;90.90
48454;DHT22;34261;55.678;12.464;2023-03-01T12:56:27;14.20;90.40
48454;DHT22;34261;55.678;12.464;2023-03-01T13:01:28;14.50;88.80
48454;DHT22;34261;55.678;12.464;2023-03-01T13:04:05;14.40;88.50
48454;DHT22;34261;55.678;12.464;2023-03-01T13:06:39;14.40;89.40
48454;DHT22;34261;55.678;12.464;2023-03-01T13:11:51;14.40;90.10
48454;DHT22;34261;55.678;12.464;2023-03-01T13:16:45;14.50;90.10
48454;DHT22;34261;55.678;12.464;2023-03-01T13:19:17;14.60;88.10
48454;DHT22;34261;55.678;12.464;2023-03-01T13:21:43;14.70;87.20
48454;DHT22;34261;55.678;12.464;2023-03-01T13:24:29;15.00;87.10
48454;DHT22;34261;55.678;12.464;2023-03-01T13:27:08;15.00;86.70
48454;DHT22;34261;55.678;12.464;2023-03-01T13:29:56;14.90;86.30
48454;DHT22;34261;55.678;12.464;2023-03-01T13:32:23;14.90;85.80
48454;DHT22;34261;55.678;12.464;2023-03-01T13:34:53;14.90;86.50
48454;DHT22;34261;55.678;12.464;2023-03-01T13:37:20;14.90;85.10
48454;DHT22;34261;55.678;12.464;2023-03-01T13:39:46;14.90;83.60
48454;DHT22;34261;55.678;12.464;2023-03-01T13:42:45;15.00;83.40
48454;DHT22;34261;55.678;12.464;2023-03-01T13:45:05;14.90;83.90
48454;DHT22;34261;55.678;12.464;2023-03-01T13:47:38;15.00;83.40
48454;DHT22;34261;55.678;12.464;2023-03-01T13:50:04;14.90;85.60
48454;DHT22;34261;55.678;12.464;2023-03-01T13:52:39;15.00;82.90
48454;DHT22;34261;55.678;12.464;2023-03-01T13:55:14;14.80;83.80
48454;DHT22;34261;55.678;12.464;2023-03-01T13:57:43;15.00;83.90
48454;DHT22;34261;55.678;12.464;2023-03-01T14:00:24;15.00;84.10
48454;DHT22;34261;55.678;12.464;2023-03-01T14:08:32;15.20;83.40
48454;DHT22;34261;55.678;12.464;2023-03-01T14:13:54;15.40;84.50
48454;DHT22;34261;55.678;12.464;2023-03-01T14:16:27;15.30;84.20
48454;DHT22;34261;55.678;12.464;2023-03-01T14:21:31;15.20;85.00
48454;DHT22;34261;55.678;12.464;2023-03-01T14:23:57;15.30;83.20
48454;DHT22;34261;55.678;12.464;2023-03-01T14:26:23;15.40;83.30
48454;DHT22;34261;55.678;12.464;2023-03-01T14:28:49;15.40;82.30
48454;DHT22;34261;55.678;12.464;2023-03-01T14:33:59;15.50;83.00
48454;DHT22;34261;55.678;12.464;2023-03-01T14:36:26;15.50;81.40
48454;DHT22;34261;55.678;12.464;2023-03-01T14:38:52;15.50;81.60
48454;DHT22;34261;55.678;12.464;2023-03-01T14:41:23;15.50;82.30
48454;DHT22;34261;55.678;12.464;2023-03-01T14:43:52;15.70;80.70
48454;DHT22;34261;55.678;12.464;2023-03-01T14:46:19;15.70;80.70
48454;DHT22;34261;55.678;12.464;2023-03-01T14:48:48;15.70;80.60
48454;DHT22;34261;55.678;12.464;2023-03-01T14:51:13;15.80;80.40
48454;DHT22;34261;55.678;12.464;2023-03-01T14:53:39;15.60;80.70
48454;DHT22;34261;55.678;12.464;2023-03-01T14:56:05;15.60;81.10
48454;DHT22;34261;55.678;12.464;2023-03-01T14:58:31;15.40;80.90
48454;DHT22;34261;55.678;12.464;2023-03-01T15:00:59;15.30;81.20
48454;DHT22;34261;55.678;12.464;2023-03-01T15:06:21;15.30;81.00
48454;DHT22;34261;55.678;12.464;2023-03-01T15:08:55;15.40;81.40
48454;DHT22;34261;55.678;12.464;2023-03-01T15:11:28;15.10;81.80
48454;DHT22;34261;55.678;12.464;2023-03-01T15:13:54;14.90;82.10
48454;DHT22;34261;55.678;12.464;2023-03-01T15:16:30;15.00;81.10
48454;DHT22;34261;55.678;12.464;2023-03-01T15:19:03;14.80;81.60
48454;DHT22;34261;55.678;12.464;2023-03-01T15:21:33;14.70;81.80
48454;DHT22;34261;55.678;12.464;2023-03-01T15:24:04;14.30;82.80
48454;DHT22;34261;55.678;12.464;2023-03-01T15:26:31;14.00;83.80
48454;DHT22;34261;55.678;12.464;2023-03-01T15:28:58;13.70;85.00
48454;DHT22;34261;55.678;12.464;2023-03-01T15:31:26;13.50;85.20
48454;DHT22;34261;55.678;12.464;2023-03-01T15:33:52;13.30;85.40
48454;DHT22;34261;55.678;12.464;2023-03-01T15:38:56;12.70;86.90
48454;DHT22;34261;55.678;12.464;2023-03-01T15:43:48;12.20;88.30
48454;DHT22;34261;55.678;12.464;2023-03-01T15:46:16;12.00;89.20
48454;DHT22;34261;55.678;12.464;2023-03-01T15:48:49;11.70;89.80
48454;DHT22;34261;55.678;12.464;2023-03-01T15:51:15;11.30;90.30
48454;DHT22;34261;55.678;12.464;2023-03-01T15:53:42;11.10;91.00
48454;DHT22;34261;55.678;12.464;2023-03-01T15:56:11;10.80;91.30
48454;DHT22;34261;55.678;12.464;2023-03-01T15:58:43;10.60;91.60
48454;DHT22;34261;55.678;12.464;2023-03-01T16:01:10;10.40;91.90
48454;DHT22;34261;55.678;12.464;2023-03-01T16:03:37;10.30;92.00
48454;DHT22;34261;55.678;12.464;2023-03-01T16:06:03;10.20;92.00
48454;DHT22;34261;55.678;12.464;2023-03-01T16:08:29;10.20;91.60
48454;DHT22;34261;55.678;12.464;2023-03-01T16:10:54;10.10;91.80
48454;DHT22;34261;55.678;12.464;2023-03-01T16:13:22;10.00;92.20
48454;DHT22;34261;55.678;12.464;2023-03-01T16:15:52;10.00;92.00
48454;DHT22;34261;55.678;12.464;2023-03-01T16:18:18;9.80;91.90
48454;DHT22;34261;55.678;12.464;2023-03-01T16:20:43;9.70;92.20
48454;DHT22;34261;55.678;12.464;2023-03-01T16:23:09;9.70;92.40
48454;DHT22;34261;55.678;12.464;2023-03-01T16:25:36;9.50;92.40
48454;DHT22;34261;55.678;12.464;2023-03-01T16:28:01;9.50;92.70
48454;DHT22;34261;55.678;12.464;2023-03-01T16:30:30;9.40;93.00
48454;DHT22;34261;55.678;12.464;2023-03-01T16:32:55;9.30;93.10
48454;DHT22;34261;55.678;12.464;2023-03-01T16:35:21;9.20;93.20
48454;DHT22;34261;55.678;12.464;2023-03-01T16:37:47;9.10;93.60
48454;DHT22;34261;55.678;12.464;2023-03-01T16:40:17;9.00;93.70
48454;DHT22;34261;55.678;12.464;2023-03-01T16:42:43;8.90;94.00
48454;DHT22;34261;55.678;12.464;2023-03-01T16:45:08;8.80;94.40
48454;DHT22;34261;55.678;12.464;2023-03-01T16:47:34;8.70;94.30
48454;DHT22;34261;55.678;12.464;2023-03-01T16:50:00;8.70;94.30
48454;DHT22;34261;55.678;12.464;2023-03-01T16:52:26;8.70;94.50
48454;DHT22;34261;55.678;12.464;2023-03-01T16:54:51;8.60;94.60
48454;DHT22;34261;55.678;12.464;2023-03-01T16:57:17;8.60;94.80
48454;DHT22;34261;55.678;12.464;2023-03-01T16:59:44;8.50;95.00
48454;DHT22;34261;55.678;12.464;2023-03-01T17:02:10;8.40;95.10
48454;DHT22;34261;55.678;12.464;2023-03-01T17:04:36;8.30;95.30
48454;DHT22;34261;55.678;12.464;2023-03-01T17:07:02;8.20;95.40